createdAt,value
2023-03-05T00:03:14.415Z,0.80
2023-03-05T00:07:21.222Z,0.50
2023-03-05T00:11:30.490Z,0.47
2023-03-05T00:15:42.216Z,1.10
2023-03-05T00:19:48.973Z,1.60
2023-03-05T00:23:56.988Z,1.23
2023-03-05T00:28:04.670Z,0.30
2023-03-05T00:32:11.450Z,0.23
2023-03-05T00:36:18.175Z,0.87
2023-03-05T00:40:24.943Z,0.40
2023-03-05T00:44:31.669Z,0.10
2023-03-05T00:48:38.428Z,0.20
2023-03-05T00:52:45.125Z,0.20
2023-03-05T00:56:51.850Z,0.40
2023-03-05T01:01:00.308Z,0.30
2023-03-05T01:05:07.834Z,0.20
2023-03-05T01:09:14.651Z,1.33
2023-03-05T01:13:21.478Z,0.23
2023-03-05T01:17:28.207Z,0.30
2023-03-05T01:21:36.454Z,0.40
2023-03-05T01:25:43.389Z,0.30
2023-03-05T01:29:50.090Z,0.20
2023-03-05T01:33:56.812Z,0.23
2023-03-05T01:38:03.542Z,0.30
2023-03-05T01:42:10.278Z,0.30
2023-03-05T01:46:26.012Z,0.40
2023-03-05T01:50:33.452Z,0.40
2023-03-05T01:55:03.766Z,0.40
2023-03-05T01:59:11.848Z,0.30
2023-03-05T02:03:19.768Z,0.40
2023-03-05T02:07:26.784Z,0.40
2023-03-05T02:11:34.314Z,0.50
2023-03-05T02:15:42.013Z,0.50
2023-03-05T02:19:50.907Z,0.80
2023-03-05T02:23:57.625Z,0.40
2023-03-05T02:28:11.983Z,0.40
2023-03-05T02:32:18.742Z,0.67
2023-03-05T02:36:26.215Z,0.30
2023-03-05T02:40:32.950Z,0.40
2023-03-05T02:44:39.795Z,0.37
2023-03-05T02:48:46.488Z,0.40
2023-03-05T02:52:53.212Z,0.67
2023-03-05T02:56:59.915Z,0.27
2023-03-05T03:01:06.641Z,0.93
2023-03-05T03:05:13.402Z,0.30
2023-03-05T03:09:20.489Z,0.40
2023-03-05T03:13:27.200Z,0.57
2023-03-05T03:17:36.015Z,0.37
2023-03-05T03:21:42.723Z,0.83
2023-03-05T03:25:49.460Z,0.70
2023-03-05T03:29:56.209Z,0.50
2023-03-05T03:34:03.104Z,0.57
2023-03-05T03:38:09.812Z,0.53
2023-03-05T03:42:20.497Z,1.13
2023-03-05T03:46:27.331Z,0.80
2023-03-05T03:50:34.066Z,0.60
2023-03-05T03:54:41.019Z,0.73
2023-03-05T03:58:51.763Z,0.80
2023-03-05T04:02:58.476Z,0.77
2023-03-05T04:07:05.183Z,1.27
2023-03-05T04:11:11.858Z,0.90
2023-03-05T04:15:18.797Z,1.13
2023-03-05T04:19:25.537Z,0.60
2023-03-05T04:23:33.107Z,0.90
2023-03-05T04:27:40.512Z,0.70
2023-03-05T04:31:47.349Z,0.90
2023-03-05T04:35:54.053Z,1.17
2023-03-05T04:40:00.752Z,1.17
2023-03-05T04:44:07.444Z,0.70
2023-03-05T04:48:14.395Z,1.17
2023-03-05T04:52:21.209Z,0.60
2023-03-05T04:56:27.921Z,0.67
2023-03-05T05:00:34.904Z,0.90
2023-03-05T05:04:45.022Z,1.07
2023-03-05T05:08:51.734Z,1.03
2023-03-05T05:12:58.704Z,1.53
2023-03-05T05:17:05.522Z,1.70
2023-03-05T05:21:14.491Z,2.43
2023-03-05T05:25:21.208Z,1.13
2023-03-05T05:29:27.897Z,1.37
2023-03-05T05:33:34.706Z,0.77
2023-03-05T05:37:41.368Z,1.30
2023-03-05T05:41:51.531Z,1.40
2023-03-05T05:46:03.368Z,1.30
2023-03-05T05:50:11.219Z,1.25
2023-03-05T05:54:18.096Z,0.97
2023-03-05T05:58:24.797Z,1.10
2023-03-05T06:02:31.473Z,1.00
2023-03-05T06:06:38.268Z,1.63
2023-03-05T06:10:44.972Z,1.87
2023-03-05T06:14:51.717Z,1.20
2023-03-05T06:18:59.017Z,1.10
2023-03-05T06:23:06.184Z,1.57
2023-03-05T06:27:12.919Z,1.10
2023-03-05T06:31:27.972Z,1.10
2023-03-05T06:35:34.705Z,1.87
2023-03-05T06:39:41.738Z,1.80
2023-03-05T06:43:48.720Z,1.33
2023-03-05T06:47:55.716Z,1.40
2023-03-05T06:52:02.648Z,1.70
2023-03-05T06:56:09.816Z,2.47
2023-03-05T07:00:16.883Z,1.03
2023-03-05T07:04:24.431Z,0.97
2023-03-05T07:08:31.865Z,1.10
2023-03-05T07:12:38.811Z,1.33
2023-03-05T07:16:45.642Z,1.30
2023-03-05T07:20:52.335Z,1.00
2023-03-05T07:24:59.066Z,1.00
2023-03-05T07:29:05.824Z,2.03
2023-03-05T07:33:12.558Z,1.13
2023-03-05T07:37:19.250Z,1.60
2023-03-05T07:41:26.068Z,1.42
2023-03-05T07:45:32.840Z,1.30
2023-03-05T07:49:41.581Z,1.50
2023-03-05T07:53:49.648Z,2.23
2023-03-05T07:57:56.432Z,0.98
2023-03-05T08:02:03.123Z,1.35
2023-03-05T08:06:11.679Z,1.30
2023-03-05T08:10:18.424Z,1.20
2023-03-05T08:14:25.101Z,1.20
2023-03-05T08:18:31.804Z,1.65
2023-03-05T08:22:38.962Z,0.73
2023-03-05T08:26:45.903Z,1.00
2023-03-05T08:30:52.616Z,1.10
2023-03-05T08:34:59.408Z,0.73
2023-03-05T08:39:08.452Z,0.70
2023-03-05T08:43:16.785Z,0.77
2023-03-05T08:47:25.437Z,0.80
2023-03-05T08:51:32.087Z,0.60
2023-03-05T08:55:39.054Z,0.57
2023-03-05T08:59:45.743Z,0.55
2023-03-05T09:03:52.954Z,0.50
2023-03-05T09:07:59.669Z,0.47
2023-03-05T09:12:06.777Z,1.08
2023-03-05T09:16:16.610Z,0.30
2023-03-05T09:20:23.372Z,0.35
2023-03-05T09:24:30.142Z,0.30
2023-03-05T09:28:36.920Z,0.57
2023-03-05T09:32:43.796Z,0.75
2023-03-05T09:36:50.847Z,0.30
2023-03-05T09:41:23.312Z,0.40
2023-03-05T09:45:39.453Z,0.38
2023-03-05T09:50:04.932Z,0.38
2023-03-05T09:54:21.543Z,0.30
2023-03-05T09:58:47.276Z,0.30
2023-03-05T10:02:59.451Z,0.30
2023-03-05T10:07:45.291Z,0.25
2023-03-05T10:12:04.581Z,0.20
2023-03-05T10:16:39.519Z,0.47
2023-03-05T10:20:58.198Z,0.20
2023-03-05T10:25:04.966Z,0.20
2023-03-05T10:29:40.795Z,0.20
2023-03-05T10:34:01.639Z,0.10
2023-03-05T10:38:35.899Z,0.25
2023-03-05T10:43:00.719Z,0.30
2023-03-05T10:47:21.534Z,0.20
2023-03-05T10:51:37.022Z,0.10
2023-03-05T10:55:43.992Z,0.17
2023-03-05T11:00:01.120Z,0.10
2023-03-05T11:04:29.507Z,0.10
2023-03-05T11:08:36.837Z,0.20
2023-03-05T11:12:45.053Z,0.20
2023-03-05T11:16:51.750Z,0.10
2023-03-05T11:21:21.068Z,0.10
2023-03-05T11:25:28.038Z,0.10
2023-03-05T11:29:35.007Z,0.00
2023-03-05T11:33:53.828Z,0.00
2023-03-05T11:38:05.176Z,0.00
2023-03-05T11:42:16.894Z,0.00
2023-03-05T11:46:24.525Z,0.27
2023-03-05T11:50:32.906Z,0.05
2023-03-05T11:54:59.104Z,0.05
2023-03-05T11:59:22.323Z,0.10
2023-03-05T12:03:47.834Z,0.10
2023-03-05T12:07:58.268Z,0.03
2023-03-05T12:12:36.152Z,0.00
2023-03-05T12:17:02.537Z,0.00
2023-03-05T12:21:36.880Z,0.00
2023-03-05T12:25:50.498Z,0.00
2023-03-05T12:30:01.475Z,0.00
2023-03-05T12:34:37.349Z,0.00
2023-03-05T12:38:46.380Z,0.10
2023-03-05T12:43:00.656Z,0.00
2023-03-05T12:47:19.205Z,0.00
2023-03-05T12:51:38.920Z,0.10
2023-03-05T12:55:48.555Z,0.00
2023-03-05T13:00:05.142Z,0.10
2023-03-05T13:04:19.807Z,1.08
2023-03-05T13:08:30.507Z,0.10
2023-03-05T13:12:38.928Z,0.10
2023-03-05T13:16:45.690Z,0.20
2023-03-05T13:21:19.396Z,0.00
2023-03-05T13:25:26.238Z,0.10
2023-03-05T13:29:32.993Z,0.10
2023-03-05T13:33:39.890Z,0.08
2023-03-05T13:37:46.853Z,0.25
2023-03-05T13:42:18.067Z,0.10
2023-03-05T13:46:31.616Z,0.10
2023-03-05T13:50:41.100Z,0.73
2023-03-05T13:54:48.078Z,0.17
2023-03-05T13:58:57.031Z,0.90
2023-03-05T14:03:21.712Z,0.10
2023-03-05T14:07:37.867Z,0.90
2023-03-05T14:12:15.556Z,0.13
2023-03-05T14:16:28.998Z,0.10
2023-03-05T14:20:35.693Z,0.20
2023-03-05T14:24:51.811Z,0.10
2023-03-05T14:29:04.831Z,0.30
2023-03-05T14:33:11.628Z,0.10
2023-03-05T14:37:41.475Z,0.17
2023-03-05T14:41:48.175Z,0.10
2023-03-05T14:45:54.909Z,0.13
2023-03-05T14:50:01.601Z,0.30
2023-03-05T14:54:20.223Z,0.28
2023-03-05T14:58:32.227Z,0.10
2023-03-05T15:02:38.958Z,0.20
2023-03-05T15:06:50.555Z,0.10
2023-03-05T15:10:57.946Z,0.30
2023-03-05T15:15:05.826Z,0.65
2023-03-05T15:19:13.311Z,0.20
2023-03-05T15:23:20.091Z,0.32
2023-03-05T15:27:26.779Z,0.10
2023-03-05T15:31:38.650Z,0.10
2023-03-05T15:35:45.793Z,0.20
2023-03-05T15:39:53.147Z,0.22
2023-03-05T15:43:59.838Z,0.20
2023-03-05T15:48:07.077Z,0.10
2023-03-05T15:52:14.520Z,0.10
2023-03-05T15:56:21.215Z,0.10
2023-03-05T16:00:30.582Z,0.20
2023-03-05T16:04:37.260Z,0.20
2023-03-05T16:08:44.610Z,0.10
2023-03-05T16:12:55.164Z,0.10
2023-03-05T16:17:03.440Z,0.63
2023-03-05T16:21:10.850Z,0.20
2023-03-05T16:25:18.065Z,0.10
2023-03-05T16:29:24.968Z,0.10
2023-03-05T16:33:31.700Z,0.30
2023-03-05T16:37:39.372Z,0.20
2023-03-05T16:41:46.275Z,0.20
2023-03-05T16:45:52.952Z,0.28
2023-03-05T16:50:00.831Z,0.20
2023-03-05T16:54:09.983Z,0.25
2023-03-05T16:58:16.859Z,0.10
2023-03-05T17:02:23.538Z,0.13
2023-03-05T17:06:31.870Z,0.30
2023-03-05T17:10:38.582Z,0.40
2023-03-05T17:14:45.631Z,0.70
2023-03-05T17:18:52.419Z,0.50
2023-03-05T17:23:02.052Z,0.40
2023-03-05T17:27:09.738Z,0.93
2023-03-05T17:31:16.579Z,0.30
2023-03-05T17:35:23.516Z,0.20
2023-03-05T17:39:30.458Z,0.30
2023-03-05T17:43:37.195Z,0.30
2023-03-05T17:47:44.179Z,0.20
2023-03-05T17:51:50.935Z,0.10
2023-03-05T17:56:00.423Z,0.22
2023-03-05T18:00:09.396Z,0.20
2023-03-05T18:04:17.161Z,0.28
2023-03-05T18:08:23.914Z,0.20
2023-03-05T18:12:30.602Z,0.25
2023-03-05T18:16:37.333Z,0.25
2023-03-05T18:20:44.918Z,0.13
2023-03-05T18:24:51.598Z,0.30
2023-03-05T18:28:58.306Z,0.10
2023-03-05T18:33:05.313Z,0.30
2023-03-05T18:37:12.045Z,0.40
2023-03-05T18:41:27.258Z,0.50
2023-03-05T18:45:34.608Z,0.85
2023-03-05T18:49:41.272Z,0.77
2023-03-05T18:53:48.345Z,0.43
2023-03-05T18:57:55.663Z,0.80
2023-03-05T19:02:02.398Z,0.40
2023-03-05T19:06:09.237Z,0.95
2023-03-05T19:10:17.612Z,1.02
2023-03-05T19:14:24.294Z,0.63
2023-03-05T19:18:33.862Z,0.40
2023-03-05T19:22:40.554Z,0.40
2023-03-05T19:26:48.446Z,0.30
2023-03-05T19:30:55.118Z,0.20
2023-03-05T19:35:02.221Z,0.20
2023-03-05T19:39:09.309Z,0.40
2023-03-05T19:43:17.621Z,0.20
2023-03-05T19:47:25.916Z,0.20
2023-03-05T19:51:32.578Z,0.20
2023-03-05T19:55:40.781Z,0.30
2023-03-05T19:59:50.750Z,0.20
2023-03-05T20:03:59.058Z,0.20
2023-03-05T20:08:05.763Z,0.20
2023-03-05T20:12:12.645Z,0.63
2023-03-05T20:16:27.787Z,0.20
2023-03-05T20:20:34.541Z,0.20
2023-03-05T20:24:41.196Z,0.20
2023-03-05T20:28:49.844Z,0.50
2023-03-05T20:32:56.632Z,0.20
2023-03-05T20:37:05.005Z,0.40
2023-03-05T20:41:14.589Z,0.33
2023-03-05T20:45:21.389Z,0.20
2023-03-05T20:49:28.083Z,0.30
2023-03-05T20:53:34.752Z,0.30
2023-03-05T20:57:43.013Z,1.43
2023-03-05T21:01:49.729Z,0.40
2023-03-05T21:05:57.169Z,1.17
2023-03-05T21:10:04.340Z,0.50
2023-03-05T21:14:11.024Z,0.50
2023-03-05T21:18:17.981Z,0.57
2023-03-05T21:22:24.666Z,0.50
2023-03-05T21:26:31.414Z,0.70
2023-03-05T21:30:44.860Z,0.83
2023-03-05T21:34:51.533Z,1.20
2023-03-05T21:38:59.455Z,0.80
2023-03-05T21:43:06.148Z,0.63
2023-03-05T21:47:12.824Z,0.67
2023-03-05T21:51:22.525Z,0.70
2023-03-05T21:55:34.996Z,0.80
2023-03-05T21:59:42.782Z,1.40
2023-03-05T22:03:50.067Z,0.60
2023-03-05T22:07:57.220Z,1.00
2023-03-05T22:12:04.711Z,0.90
2023-03-05T22:16:12.231Z,1.00
2023-03-05T22:20:19.066Z,1.10
2023-03-05T22:24:25.773Z,0.80
2023-03-05T22:28:33.973Z,0.80
2023-03-05T22:32:40.863Z,0.80
2023-03-05T22:36:48.622Z,0.70
2023-03-05T22:40:55.293Z,0.90
2023-03-05T22:45:02.030Z,0.80
2023-03-05T22:49:08.734Z,1.20
2023-03-05T22:53:15.398Z,1.10
2023-03-05T22:57:22.054Z,1.03
2023-03-05T23:01:28.868Z,0.90
2023-03-05T23:05:37.929Z,0.80
2023-03-05T23:09:45.025Z,1.20
2023-03-05T23:13:51.723Z,1.20
2023-03-05T23:17:58.844Z,1.20
2023-03-05T23:22:07.360Z,1.10
2023-03-05T23:26:14.074Z,1.00
2023-03-05T23:30:31.371Z,1.33
2023-03-05T23:34:38.237Z,0.73
2023-03-05T23:38:44.912Z,0.90
2023-03-05T23:42:52.672Z,1.10
2023-03-05T23:46:59.330Z,1.10
2023-03-05T23:51:10.452Z,0.90
2023-03-05T23:55:20.277Z,1.10
2023-03-05T23:59:26.942Z,0.87
